Terminal Aerodrome Forecast
Issued by NWS Grand Forks, ND

Home | Current Version | Previous Version | Graphics & Text | Print | Product List | Glossary On
Versions: 1 2 3 4 5 6 7 8 9 10 11 12 13 14 15 16
000
FTUS43 KFGF 201134
TAFGFK
TAF
KGFK 201134Z 2012/2112 16009KT P6SM FEW250
     FM201300 16013KT P6SM FEW250
     FM201600 17019G32KT P6SM SCT250
     FM210000 17016G25KT P6SM SCT110 BKN250
     FM210400 17014KT P6SM BKN060=

USA.gov is the U.S. government's official web portal to all federal, state and local government web resources and services.